createdAt,value
2022-07-25T00:02:14.272Z,3.00
2022-07-25T00:04:49.803Z,3.00
2022-07-25T00:07:24.694Z,2.00
2022-07-25T00:09:59.650Z,4.00
2022-07-25T00:12:34.483Z,3.00
2022-07-25T00:15:09.357Z,3.00
2022-07-25T00:17:44.128Z,1.00
2022-07-25T00:20:17.962Z,2.00
2022-07-25T00:22:52.723Z,2.00
2022-07-25T00:25:27.522Z,2.00
2022-07-25T00:28:02.340Z,2.00
2022-07-25T00:30:37.373Z,2.00
2022-07-25T00:33:12.895Z,1.00
2022-07-25T00:35:47.550Z,3.00
2022-07-25T00:38:22.573Z,1.00
2022-07-25T00:40:57.446Z,3.00
2022-07-25T00:43:32.252Z,1.20
2022-07-25T00:46:07.049Z,2.00
2022-07-25T00:48:43.572Z,2.00
2022-07-25T00:51:18.704Z,3.00
2022-07-25T00:53:53.466Z,3.00
2022-07-25T00:56:27.687Z,3.00
2022-07-25T00:59:02.535Z,2.00
2022-07-25T01:01:37.387Z,2.00
2022-07-25T01:04:11.706Z,2.00
2022-07-25T01:06:45.797Z,1.80
2022-07-25T01:09:21.512Z,2.00
2022-07-25T01:11:56.467Z,3.00
2022-07-25T01:14:31.841Z,3.00
2022-07-25T01:17:07.351Z,2.00
2022-07-25T01:19:41.542Z,2.00
2022-07-25T01:22:15.729Z,2.00
2022-07-25T01:24:50.446Z,3.00
2022-07-25T01:27:25.417Z,2.00
2022-07-25T01:30:00.390Z,2.00
2022-07-25T01:32:35.125Z,2.40
2022-07-25T01:35:09.776Z,2.00
2022-07-25T01:37:45.762Z,2.00
2022-07-25T01:40:20.447Z,2.00
2022-07-25T01:42:54.642Z,2.00
2022-07-25T01:45:29.291Z,3.00
2022-07-25T01:48:04.185Z,3.20
2022-07-25T01:50:38.944Z,3.00
2022-07-25T01:53:13.727Z,2.40
2022-07-25T01:55:48.477Z,2.00
2022-07-25T01:58:23.304Z,4.00
2022-07-25T02:00:57.580Z,3.75
2022-07-25T02:03:46.155Z,2.20
2022-07-25T02:06:21.687Z,2.00
2022-07-25T02:09:04.819Z,3.00
2022-07-25T02:11:39.630Z,3.00
2022-07-25T02:14:13.830Z,3.00
2022-07-25T02:16:48.665Z,2.00
2022-07-25T02:19:23.565Z,2.00
2022-07-25T02:21:58.344Z,3.00
2022-07-25T02:24:33.481Z,3.00
2022-07-25T02:27:08.321Z,2.60
2022-07-25T02:29:43.036Z,3.00
2022-07-25T02:32:17.577Z,2.40
2022-07-25T02:34:52.363Z,2.00
2022-07-25T02:37:28.392Z,3.40
2022-07-25T02:40:03.142Z,3.00
2022-07-25T02:42:37.303Z,3.00
2022-07-25T02:45:12.139Z,3.25
2022-07-25T02:47:46.931Z,4.00
2022-07-25T02:50:21.748Z,4.00
2022-07-25T02:52:56.572Z,3.00
2022-07-25T02:55:31.240Z,3.00
2022-07-25T02:58:05.052Z,5.00
2022-07-25T03:00:39.766Z,3.20
2022-07-25T03:31:26.144Z,3.00
2022-07-25T03:36:35.729Z,5.00
2022-07-25T03:39:10.452Z,5.00
2022-07-25T03:42:08.037Z,4.00
2022-07-25T03:44:48.866Z,5.75
2022-07-25T03:47:22.904Z,5.00
2022-07-25T04:54:36.909Z,8.00
2022-07-25T04:57:10.993Z,8.00
2022-07-25T04:59:45.865Z,8.00
2022-07-25T05:02:49.341Z,9.00
2022-07-25T05:05:24.214Z,8.20
2022-07-25T05:07:58.540Z,9.25
2022-07-25T05:10:33.230Z,10.75
2022-07-25T05:13:08.378Z,10.40
2022-07-25T05:15:42.250Z,9.00
2022-07-25T05:18:16.356Z,9.00
2022-07-25T05:20:50.585Z,9.00
2022-07-25T05:23:49.244Z,13.00
2022-07-25T05:26:24.284Z,13.00
2022-07-25T05:29:16.057Z,17.25
2022-07-25T05:32:08.011Z,17.00
2022-07-25T05:34:45.676Z,15.00
2022-07-25T05:37:26.801Z,15.50
2022-07-25T05:40:00.905Z,10.00
2022-07-25T05:42:35.279Z,11.60
2022-07-25T05:45:09.098Z,12.00
2022-07-25T05:47:43.072Z,10.00
2022-07-25T05:50:18.161Z,8.00
2022-07-25T05:52:52.108Z,9.20
2022-07-25T05:55:26.302Z,9.50
2022-07-25T05:58:00.156Z,11.00
2022-07-25T06:00:37.821Z,10.25
2022-07-25T06:03:12.643Z,9.00
2022-07-25T06:05:47.473Z,8.40
2022-07-25T06:08:42.144Z,7.50
2022-07-25T06:11:17.002Z,7.00
2022-07-25T06:13:50.745Z,9.00
2022-07-25T06:16:26.501Z,7.00
2022-07-25T06:19:00.811Z,8.60
2022-07-25T06:21:35.920Z,7.00
2022-07-25T06:24:13.007Z,6.00
2022-07-25T06:26:46.995Z,7.00
2022-07-25T06:29:20.913Z,6.40
2022-07-25T06:31:55.174Z,7.60
2022-07-25T06:34:30.997Z,6.50
2022-07-25T06:37:04.933Z,5.40
2022-07-25T06:39:55.726Z,6.60
2022-07-25T06:42:32.256Z,5.50
2022-07-25T06:45:06.158Z,6.00
2022-07-25T06:47:58.057Z,6.00
2022-07-25T06:50:32.328Z,6.00
2022-07-25T06:53:06.126Z,7.50
2022-07-25T06:55:40.069Z,7.40
2022-07-25T06:58:13.997Z,6.60
2022-07-25T07:00:48.053Z,6.00
2022-07-25T07:03:22.354Z,6.00
2022-07-25T07:05:56.298Z,6.00
2022-07-25T07:08:30.225Z,7.00
2022-07-25T07:11:04.055Z,6.75
2022-07-25T07:13:41.061Z,7.80
2022-07-25T07:16:17.007Z,8.00
2022-07-25T07:18:51.382Z,5.00
2022-07-25T07:21:26.953Z,5.50
2022-07-25T07:24:00.996Z,6.80
2022-07-25T07:26:35.548Z,6.00
2022-07-25T07:29:09.642Z,6.20
2022-07-25T07:31:44.179Z,10.00
2022-07-25T07:34:18.077Z,6.00
2022-07-25T07:36:52.016Z,6.00
2022-07-25T07:39:25.881Z,7.40
2022-07-25T07:41:59.666Z,8.00
2022-07-25T07:44:34.737Z,6.20
2022-07-25T07:47:14.494Z,5.00
2022-07-25T07:49:54.438Z,4.40
2022-07-25T07:52:29.139Z,4.00
2022-07-25T07:55:21.244Z,7.00
2022-07-25T07:57:56.922Z,5.00
2022-07-25T08:00:31.962Z,6.00
2022-07-25T08:03:26.871Z,6.00
2022-07-25T08:06:00.898Z,4.25
2022-07-25T08:08:34.770Z,5.20
2022-07-25T08:11:09.529Z,6.00
2022-07-25T08:13:44.289Z,5.60
2022-07-25T08:16:21.231Z,5.50
2022-07-25T08:18:55.610Z,3.75
2022-07-25T08:21:29.812Z,3.60
2022-07-25T08:24:28.771Z,5.00
2022-07-25T08:27:02.613Z,8.00
2022-07-25T08:29:36.498Z,7.00
2022-07-25T08:32:10.211Z,6.00
2022-07-25T08:34:44.920Z,7.00
2022-07-25T08:37:18.980Z,6.60
2022-07-25T08:39:53.264Z,8.00
2022-07-25T08:42:27.257Z,6.00
2022-07-25T08:45:01.091Z,6.00
2022-07-25T08:47:35.296Z,5.00
2022-07-25T08:50:09.489Z,5.50
2022-07-25T08:52:43.335Z,5.50
2022-07-25T08:55:17.907Z,3.50
2022-07-25T08:57:54.281Z,6.00
2022-07-25T09:00:32.380Z,5.20
2022-07-25T09:03:12.853Z,7.00
2022-07-25T09:05:49.320Z,6.00
2022-07-25T09:08:23.506Z,5.00
2022-07-25T09:10:58.444Z,4.50
2022-07-25T09:13:38.695Z,6.00
2022-07-25T09:16:14.233Z,6.00
2022-07-25T09:18:49.930Z,5.00
2022-07-25T09:21:24.726Z,5.60
2022-07-25T09:24:01.682Z,6.00
2022-07-25T09:26:36.408Z,4.00
2022-07-25T09:29:16.020Z,5.40
2022-07-25T09:31:50.172Z,5.00
2022-07-25T09:34:25.913Z,5.25
2022-07-25T09:36:59.936Z,3.60
2022-07-25T09:39:33.799Z,4.00
2022-07-25T09:42:07.642Z,5.00
2022-07-25T09:44:41.547Z,6.00
2022-07-25T09:47:16.113Z,5.00
2022-07-25T09:49:53.953Z,5.00
2022-07-25T09:52:28.026Z,3.50
2022-07-25T09:55:01.713Z,6.00
2022-07-25T09:57:35.714Z,5.00
2022-07-25T10:00:09.719Z,3.00
2022-07-25T10:02:45.319Z,7.00
2022-07-25T10:05:20.510Z,5.75
2022-07-25T10:07:55.387Z,6.00
2022-07-25T10:10:29.501Z,5.00
2022-07-25T10:13:09.465Z,6.00
2022-07-25T10:15:44.929Z,5.00
2022-07-25T10:18:19.719Z,5.25
2022-07-25T10:20:53.736Z,4.40
2022-07-25T10:23:57.610Z,5.25
2022-07-25T10:26:33.895Z,5.25
2022-07-25T10:29:07.681Z,4.40
2022-07-25T10:32:00.018Z,4.00
2022-07-25T10:34:34.129Z,5.00
2022-07-25T10:37:08.117Z,4.00
2022-07-25T10:39:43.000Z,5.00
2022-07-25T10:42:17.014Z,4.60
2022-07-25T10:44:51.382Z,5.40
2022-07-25T10:47:25.250Z,5.00
2022-07-25T10:50:25.662Z,5.00
2022-07-25T10:52:53.581Z,5.00
2022-07-25T10:55:27.552Z,6.20
2022-07-25T10:58:17.088Z,5.00
2022-07-25T11:00:52.319Z,6.00
2022-07-25T11:03:40.139Z,7.00
2022-07-25T11:06:14.459Z,7.00
2022-07-25T11:08:48.836Z,6.00
2022-07-25T11:11:22.791Z,5.50
2022-07-25T11:13:56.747Z,6.00
2022-07-25T11:16:31.378Z,6.00
2022-07-25T11:19:05.775Z,6.00
2022-07-25T11:21:39.889Z,5.00
2022-07-25T11:24:13.826Z,5.50
2022-07-25T11:26:48.191Z,6.00
2022-07-25T11:29:29.854Z,5.00
2022-07-25T11:32:03.803Z,5.00
2022-07-25T11:34:39.157Z,6.00
2022-07-25T11:37:14.499Z,5.00
2022-07-25T11:39:48.466Z,4.50
2022-07-25T11:42:55.196Z,5.00
2022-07-25T11:45:28.981Z,6.00
2022-07-25T11:48:04.094Z,4.75
2022-07-25T11:50:38.023Z,5.00
2022-07-25T11:53:12.637Z,4.20
2022-07-25T11:55:47.992Z,6.80
2022-07-25T11:58:21.818Z,4.00
2022-07-25T12:00:56.827Z,7.50
2022-07-25T12:03:31.968Z,6.00
2022-07-25T12:06:06.980Z,6.00
2022-07-25T12:09:20.355Z,5.20
2022-07-25T12:11:55.790Z,6.00
2022-07-25T12:14:35.271Z,4.00
2022-07-25T12:17:09.797Z,5.00
2022-07-25T12:19:47.561Z,5.00
2022-07-25T12:22:22.197Z,4.00
2022-07-25T12:24:57.086Z,4.80
2022-07-25T12:27:31.837Z,4.50
2022-07-25T12:30:05.765Z,5.40
2022-07-25T12:32:39.628Z,5.00
2022-07-25T12:35:13.542Z,6.00
2022-07-25T12:37:47.756Z,5.60
2022-07-25T12:40:22.785Z,6.00
2022-07-25T12:43:07.353Z,4.00
2022-07-25T12:45:41.166Z,4.20
2022-07-25T12:48:34.065Z,5.00
2022-07-25T12:51:08.340Z,6.00
2022-07-25T12:53:43.255Z,6.25
2022-07-25T12:56:17.056Z,6.00
2022-07-25T12:58:52.040Z,4.00
2022-07-25T13:01:25.963Z,5.75
2022-07-25T13:03:59.810Z,5.00
2022-07-25T13:06:38.476Z,5.00
2022-07-25T13:09:53.247Z,5.00
2022-07-25T13:12:27.122Z,6.00
2022-07-25T13:15:02.684Z,6.00
2022-07-25T13:17:36.455Z,4.60
2022-07-25T13:20:11.547Z,4.00
2022-07-25T13:22:45.397Z,3.60
2022-07-25T13:25:23.628Z,5.20
2022-07-25T13:27:58.322Z,4.60
2022-07-25T13:30:32.164Z,6.00
2022-07-25T13:33:06.051Z,4.00
2022-07-25T13:35:39.925Z,6.00
2022-07-25T13:38:14.668Z,6.00
2022-07-25T13:40:49.527Z,6.80
2022-07-25T13:43:24.007Z,6.00
2022-07-25T13:45:58.741Z,7.00
2022-07-25T13:48:46.829Z,5.75
2022-07-25T13:51:20.711Z,5.40
2022-07-25T13:53:54.487Z,7.00
2022-07-25T13:56:28.233Z,5.60
2022-07-25T13:59:03.219Z,5.75
2022-07-25T14:01:48.939Z,6.00
2022-07-25T14:04:24.151Z,4.00
2022-07-25T14:07:29.149Z,6.00
2022-07-25T14:10:03.201Z,7.00
2022-07-25T14:12:37.042Z,7.20
2022-07-25T14:15:11.952Z,6.00
2022-07-25T14:17:45.833Z,7.60
2022-07-25T14:20:39.491Z,8.20
2022-07-25T14:23:14.465Z,11.00
2022-07-25T14:25:48.686Z,7.00
2022-07-25T14:28:22.714Z,9.00
2022-07-25T14:30:57.541Z,8.00
2022-07-25T14:33:31.802Z,7.00
2022-07-25T14:36:05.987Z,7.00
2022-07-25T14:38:40.675Z,7.00
2022-07-25T14:41:14.662Z,6.00
2022-07-25T14:43:48.511Z,6.60
2022-07-25T14:46:22.363Z,6.00
2022-07-25T14:48:59.003Z,10.00
2022-07-25T14:51:34.408Z,9.00
2022-07-25T14:54:08.667Z,9.40
2022-07-25T14:56:43.524Z,11.00
2022-07-25T14:59:18.545Z,11.00
2022-07-25T15:01:55.565Z,12.00
2022-07-25T15:04:47.856Z,13.00
2022-07-25T15:07:22.184Z,13.00
2022-07-25T15:09:57.086Z,9.00
2022-07-25T15:12:30.907Z,10.00
2022-07-25T15:15:05.157Z,12.00
2022-07-25T15:17:40.598Z,14.00
2022-07-25T15:20:16.115Z,13.50
2022-07-25T15:22:50.294Z,8.00
2022-07-25T15:25:59.938Z,10.00
2022-07-25T15:28:18.638Z,10.25
2022-07-25T15:30:52.840Z,11.25
2022-07-25T15:33:27.888Z,10.40
2022-07-25T15:36:01.689Z,10.40
2022-07-25T15:38:36.483Z,12.00
2022-07-25T15:41:12.680Z,11.00
2022-07-25T15:43:47.504Z,11.80
2022-07-25T15:46:22.461Z,13.40
2022-07-25T15:49:07.983Z,10.00
2022-07-25T15:51:43.077Z,14.00
2022-07-25T15:54:17.148Z,10.00
2022-07-25T15:56:51.911Z,10.00
2022-07-25T15:59:26.802Z,7.75
2022-07-25T16:02:02.052Z,9.20
2022-07-25T16:04:36.947Z,10.80
2022-07-25T16:07:11.216Z,10.75
2022-07-25T16:09:45.026Z,11.00
2022-07-25T16:12:27.799Z,10.00
2022-07-25T16:15:21.518Z,10.00
2022-07-25T16:18:02.129Z,9.40
2022-07-25T16:20:37.115Z,10.00
2022-07-25T16:23:10.948Z,11.25
2022-07-25T16:26:41.603Z,13.00
2022-07-25T16:29:17.254Z,12.00
2022-07-25T16:31:55.371Z,12.00
2022-07-25T16:34:30.220Z,9.60
2022-07-25T16:37:04.427Z,10.20
2022-07-25T16:39:54.627Z,10.40
2022-07-25T16:42:29.467Z,12.00
2022-07-25T16:45:03.699Z,12.80
2022-07-25T16:47:40.381Z,12.00
2022-07-25T16:50:14.678Z,13.50
2022-07-25T16:52:49.517Z,11.00
2022-07-25T16:55:24.406Z,11.20
2022-07-25T16:57:58.783Z,11.00
2022-07-25T17:00:33.562Z,11.00
2022-07-25T17:03:08.511Z,12.00
2022-07-25T17:05:43.304Z,11.00
2022-07-25T17:08:17.524Z,11.00
2022-07-25T17:10:51.701Z,13.00
2022-07-25T17:13:25.928Z,13.20
2022-07-25T17:15:59.799Z,12.75
2022-07-25T17:18:34.118Z,10.50
2022-07-25T17:21:08.033Z,10.60
2022-07-25T17:23:41.838Z,9.25
2022-07-25T17:26:16.593Z,10.00
2022-07-25T17:28:50.781Z,9.00
2022-07-25T17:31:25.713Z,9.00
2022-07-25T17:33:59.411Z,12.00
2022-07-25T17:36:52.657Z,11.00
2022-07-25T17:39:26.898Z,13.00
2022-07-25T17:42:01.654Z,11.00
2022-07-25T17:44:35.862Z,12.00
2022-07-25T17:47:10.090Z,11.00
2022-07-25T17:49:44.401Z,11.00
2022-07-25T17:52:18.689Z,12.80
2022-07-25T17:54:53.546Z,12.60
2022-07-25T17:57:45.371Z,11.75
2022-07-25T18:00:19.139Z,11.75
2022-07-25T18:03:19.818Z,11.40
2022-07-25T18:05:54.094Z,11.00
2022-07-25T18:08:33.860Z,12.00
2022-07-25T18:11:07.665Z,11.25
2022-07-25T18:13:41.864Z,11.00
2022-07-25T18:16:16.980Z,13.00
2022-07-25T18:18:52.345Z,13.25
2022-07-25T18:21:26.148Z,14.25
2022-07-25T18:24:00.902Z,14.00
2022-07-25T18:26:53.841Z,13.00
2022-07-25T18:29:46.255Z,12.00
2022-07-25T18:32:21.015Z,11.00
2022-07-25T18:34:54.963Z,12.50
2022-07-25T18:37:29.282Z,10.40
2022-07-25T18:40:03.162Z,9.00
2022-07-25T18:42:37.431Z,8.00
2022-07-25T18:45:11.841Z,6.00
2022-07-25T18:48:09.693Z,7.50
2022-07-25T18:50:43.432Z,7.00
2022-07-25T18:53:17.577Z,7.75
2022-07-25T18:55:53.248Z,7.00
2022-07-25T18:58:28.046Z,6.20
2022-07-25T19:01:03.874Z,7.00
2022-07-25T19:03:38.867Z,7.40
2022-07-25T19:06:13.982Z,7.00
2022-07-25T19:08:49.485Z,8.00
2022-07-25T19:11:24.219Z,7.00
2022-07-25T19:13:58.703Z,5.60
2022-07-25T19:16:33.659Z,6.00
2022-07-25T19:19:10.789Z,6.00
2022-07-25T19:21:46.665Z,5.00
2022-07-25T19:24:21.606Z,5.00
2022-07-25T19:26:56.987Z,5.00
2022-07-25T19:29:31.998Z,5.00
2022-07-25T19:32:06.238Z,6.00
2022-07-25T19:34:41.000Z,5.00
2022-07-25T19:37:15.230Z,5.00
2022-07-25T19:39:50.687Z,4.60
2022-07-25T19:42:24.935Z,5.60
2022-07-25T19:44:58.895Z,5.00
2022-07-25T19:47:33.161Z,5.00
2022-07-25T19:50:07.033Z,5.00
2022-07-25T19:52:42.028Z,5.00
2022-07-25T19:55:16.287Z,5.00
2022-07-25T19:57:52.122Z,5.00
2022-07-25T20:00:25.939Z,5.00
2022-07-25T20:03:25.658Z,4.00
2022-07-25T20:06:03.433Z,5.00
2022-07-25T20:08:43.710Z,5.00
2022-07-25T20:11:17.933Z,6.00
2022-07-25T20:13:51.733Z,4.80
2022-07-25T20:16:26.854Z,5.00
2022-07-25T20:19:01.556Z,5.00
2022-07-25T20:21:36.960Z,5.00
2022-07-25T20:24:15.830Z,5.00
2022-07-25T20:26:53.496Z,6.00
2022-07-25T20:29:27.315Z,4.80
2022-07-25T20:32:02.676Z,4.75
2022-07-25T20:34:36.470Z,4.00
2022-07-25T20:37:11.515Z,5.00
2022-07-25T20:39:48.279Z,5.00
2022-07-25T20:42:22.760Z,4.00
2022-07-25T20:44:57.561Z,5.00
2022-07-25T20:47:32.357Z,6.00
2022-07-25T20:50:07.221Z,4.50
2022-07-25T20:52:41.953Z,4.00
2022-07-25T20:55:16.000Z,4.00
2022-07-25T20:57:50.873Z,4.00
2022-07-25T21:00:27.304Z,4.00
2022-07-25T21:03:02.025Z,5.40
2022-07-25T21:05:38.498Z,2.60
2022-07-25T21:08:13.520Z,4.75
2022-07-25T21:10:48.380Z,5.00
2022-07-25T21:13:40.864Z,4.00
2022-07-25T21:16:15.393Z,4.00
2022-07-25T21:18:51.081Z,4.20
2022-07-25T21:21:25.786Z,5.00
2022-07-25T21:24:03.909Z,6.00
2022-07-25T21:26:40.098Z,5.00
2022-07-25T21:29:14.532Z,4.00
2022-07-25T21:31:49.726Z,5.00
2022-07-25T21:34:42.672Z,6.80
2022-07-25T21:37:16.453Z,3.60
2022-07-25T21:39:51.498Z,5.00
2022-07-25T21:42:25.365Z,5.00
2022-07-25T21:45:00.178Z,5.00
2022-07-25T21:47:34.376Z,5.00
2022-07-25T21:50:27.538Z,5.00
2022-07-25T21:53:01.301Z,5.00
2022-07-25T21:55:35.481Z,6.00
2022-07-25T21:58:10.248Z,5.00
2022-07-25T22:00:45.718Z,5.00
2022-07-25T22:03:27.513Z,4.40
2022-07-25T22:06:02.389Z,4.00
2022-07-25T22:08:39.277Z,3.00
2022-07-25T22:11:20.809Z,5.00
2022-07-25T22:14:07.267Z,5.00
2022-07-25T22:16:41.525Z,3.00
2022-07-25T22:19:17.270Z,5.00
2022-07-25T22:21:56.540Z,5.00
2022-07-25T22:24:30.314Z,5.50
2022-07-25T22:27:04.512Z,5.00
2022-07-25T22:29:43.879Z,6.50
2022-07-25T22:32:17.608Z,4.00
2022-07-25T22:34:52.189Z,5.00
2022-07-25T22:37:26.020Z,5.00
2022-07-25T22:40:01.874Z,5.00
2022-07-25T22:42:36.662Z,5.00
2022-07-25T22:45:10.936Z,4.00
2022-07-25T22:47:47.300Z,5.60
2022-07-25T22:50:22.162Z,6.00
2022-07-25T22:52:57.072Z,5.00
2022-07-25T22:55:32.622Z,4.60
2022-07-25T22:58:07.174Z,4.00
2022-07-25T23:00:42.865Z,5.00
2022-07-25T23:03:16.720Z,5.40
2022-07-25T23:05:51.704Z,5.00
2022-07-25T23:08:58.465Z,6.80
2022-07-25T23:11:32.697Z,5.00
2022-07-25T23:14:06.482Z,5.00
2022-07-25T23:16:40.312Z,7.00
2022-07-25T23:19:15.165Z,5.60
2022-07-25T23:21:50.016Z,5.00
2022-07-25T23:24:24.220Z,4.00
2022-07-25T23:27:17.644Z,4.75
2022-07-25T23:29:52.424Z,7.00
2022-07-25T23:32:27.211Z,5.00
2022-07-25T23:35:01.830Z,6.00
2022-07-25T23:37:36.642Z,5.00
2022-07-25T23:40:11.828Z,5.00
2022-07-25T23:42:50.418Z,5.60
2022-07-25T23:45:27.699Z,6.40
2022-07-25T23:48:02.707Z,5.00
2022-07-25T23:50:37.426Z,5.00
2022-07-25T23:53:12.335Z,5.00
2022-07-25T23:55:47.074Z,4.80
2022-07-25T23:58:21.276Z,4.00
